Time;durP1;ratioP1;P1;durP2;ratioP2;P2;SDS_P1;SDS_P2;PMS_P1;PMS_P2;Temp;Humidity;BMP_temperature;BMP_pressure;BME280_temperature;BME280_humidity;BME280_pressure;Samples;Min_cycle;Max_cycle;Signal;HPM_P1;HPM_P2
2022/01/16 00:00:42;;;;;;;40.38;18.27;;;;;;;0.06;100.00;97360.03;5086417;28;20386;-68
2022/01/16 00:05:53;;;;;;;66.35;18.70;;;;;;;-0.50;100.00;97377.28;5091057;28;20405;-68
2022/01/16 00:08:18;;;;;;;36.57;20.57;;;;;;;-0.54;100.00;97382.88;5092195;28;20402;-68
2022/01/16 00:10:44;;;;;;;42.63;21.20;;;;;;;-0.33;100.00;97374.91;5091005;28;20739;-68
2022/01/16 00:13:10;;;;;;;59.25;20.55;;;;;;;-0.21;100.00;97381.47;5091846;28;20398;-68
2022/01/16 00:15:35;;;;;;;44.23;20.33;;;;;;;-0.38;100.00;97380.50;5091761;28;20428;-68
2022/01/16 00:20:29;;;;;;;96.60;18.50;;;;;;;-0.55;100.00;97387.22;5091744;28;20418;-68
2022/01/16 00:22:55;;;;;;;57.10;18.37;;;;;;;-0.51;100.00;97388.56;5091105;28;20398;-68
2022/01/16 00:25:20;;;;;;;40.50;17.83;;;;;;;-0.44;100.00;97378.47;5073343;28;20513;-68
2022/01/16 00:27:46;;;;;;;35.80;18.10;;;;;;;-0.35;100.00;97362.19;5091795;28;20418;-68
2022/01/16 00:30:12;;;;;;;35.80;18.10;;;;;;;-0.43;100.00;97383.50;5091376;28;20414;-68
2022/01/16 00:32:37;;;;;;;31.23;17.60;;;;;;;-0.37;100.00;97386.44;5073256;28;20849;-69
2022/01/16 00:35:04;;;;;;;31.23;17.77;;;;;;;-0.13;100.00;97358.41;5091037;28;20417;-69
2022/01/16 00:37:29;;;;;;;36.40;18.42;;;;;;;0.06;100.00;97371.13;5073149;28;20475;-69
2022/01/16 00:39:55;;;;;;;36.72;17.17;;;;;;;-0.18;100.00;97376.06;5091799;28;20485;-68
2022/01/16 00:42:20;;;;;;;38.03;16.73;;;;;;;-0.14;100.00;97387.69;5091208;28;20513;-68
2022/01/16 00:44:45;;;;;;;47.67;16.87;;;;;;;0.19;100.00;97389.63;5091082;28;20891;-68
2022/01/16 00:47:11;;;;;;;40.63;16.55;;;;;;;-0.32;100.00;97382.50;5091073;28;20469;-68
2022/01/16 00:49:39;;;;;;;34.00;17.00;;;;;;;-0.24;100.00;97387.75;5091001;28;20397;-68
2022/01/16 00:52:06;;;;;;;32.22;18.08;;;;;;;-0.44;100.00;97373.34;5090438;28;20397;-68
2022/01/16 00:54:32;;;;;;;33.22;17.75;;;;;;;-0.17;100.00;97386.19;5092202;28;20882;-68
2022/01/16 00:56:57;;;;;;;31.83;18.65;;;;;;;-0.08;100.00;97385.34;5077317;28;20402;-68
2022/01/16 00:59:23;;;;;;;70.53;18.55;;;;;;;-0.18;100.00;97397.47;5095232;28;20398;-68
2022/01/16 01:01:49;;;;;;;75.15;19.23;;;;;;;0.10;100.00;97398.25;5094573;28;20386;-69
2022/01/16 01:04:15;;;;;;;125.53;19.20;;;;;;;-0.38;100.00;97408.81;5095079;28;20406;-68
2022/01/16 01:06:41;;;;;;;71.43;17.85;;;;;;;-0.79;100.00;97419.56;5095145;28;20447;-68
2022/01/16 01:09:06;;;;;;;65.17;19.07;;;;;;;-0.87;100.00;97422.81;5094875;28;20394;-68
2022/01/16 01:11:32;;;;;;;38.43;20.97;;;;;;;-0.58;100.00;97397.81;5094615;28;20731;-68
2022/01/16 01:16:48;;;;;;;34.95;19.95;;;;;;;-0.36;100.00;97409.50;5095033;28;20449;-69
2022/01/16 01:19:14;;;;;;;39.22;20.50;;;;;;;-0.07;100.00;97392.13;5094721;28;20394;-68
2022/01/16 01:21:40;;;;;;;38.25;20.85;;;;;;;-0.10;100.00;97340.06;5094860;28;20819;-68
2022/01/16 01:24:06;;;;;;;45.25;20.83;;;;;;;0.15;100.00;97303.25;5094586;28;20778;-68
2022/01/16 01:26:37;;;;;;;38.83;19.47;;;;;;;0.00;100.00;97297.03;5076428;28;20401;-69
2022/01/16 01:29:03;;;;;;;42.90;19.73;;;;;;;-0.15;100.00;97304.44;5094300;28;20419;-69
2022/01/16 01:31:30;;;;;;;38.85;20.33;;;;;;;0.15;100.00;97308.41;5095131;28;20397;-68
2022/01/16 01:33:55;;;;;;;35.53;20.20;;;;;;;0.01;100.00;97314.06;5095020;28;20410;-68
2022/01/16 01:36:21;;;;;;;43.47;19.70;;;;;;;0.26;100.00;97352.00;5095116;28;20394;-68
2022/01/16 01:38:47;;;;;;;32.67;19.67;;;;;;;0.23;100.00;97374.66;5093627;28;20915;-68
2022/01/16 01:41:12;;;;;;;36.37;18.30;;;;;;;0.31;100.00;97395.38;5093960;28;20401;-69
2022/01/16 01:51:42;;;;;;;40.08;20.48;;;;;;;0.02;100.00;97413.59;5083077;28;20887;-68
2022/01/16 01:54:08;;;;;;;35.97;20.07;;;;;;;0.20;100.00;97417.03;5083757;28;20508;-68
2022/01/16 01:56:36;;;;;;;36.63;19.75;;;;;;;-0.07;100.00;97409.34;5087893;28;20736;-68
2022/01/16 01:59:02;;;;;;;36.05;19.05;;;;;;;-0.10;100.00;97401.88;5074410;28;20408;-69
2022/01/16 02:01:29;;;;;;;41.20;19.55;;;;;;;-0.20;100.00;97419.97;5057541;28;20406;-68
2022/01/16 02:03:55;;;;;;;28.17;17.75;;;;;;;-0.14;100.00;97421.97;5073776;28;20415;-69
2022/01/16 02:06:26;;;;;;;29.45;18.40;;;;;;;-0.10;100.00;97427.66;5073407;28;20406;-69
2022/01/16 02:08:55;;;;;;;27.80;18.00;;;;;;;0.15;100.00;97439.03;5073741;28;20406;-68
2022/01/16 02:11:26;;;;;;;27.70;17.65;;;;;;;-0.10;100.00;97436.19;5093503;28;20743;-68
2022/01/16 02:28:22;;;;;;;34.05;17.52;;;;;;;-0.25;100.00;97435.06;5089821;28;20402;-69
2022/01/16 02:31:16;;;;;;;28.55;18.55;;;;;;;-0.11;100.00;97419.09;5074730;28;20491;-68
2022/01/16 02:36:42;;;;;;;30.27;18.27;;;;;;;0.24;100.00;97420.94;5085338;28;20381;-68
2022/01/16 02:39:12;;;;;;;30.73;18.33;;;;;;;0.11;100.00;97433.38;5093423;28;20402;-68
2022/01/16 02:41:39;;;;;;;30.35;17.70;;;;;;;0.17;100.00;97430.19;5093624;28;20390;-68
2022/01/16 02:44:17;;;;;;;30.52;19.42;;;;;;;0.19;100.00;97420.56;5075432;28;20414;-68
2022/01/16 02:46:44;;;;;;;31.70;18.67;;;;;;;-0.01;100.00;97407.00;5091233;28;20386;-68
2022/01/16 02:49:35;;;;;;;30.38;19.50;;;;;;;-0.18;100.00;97399.22;5093053;28;20390;-68
2022/01/16 02:52:11;;;;;;;30.00;19.10;;;;;;;-0.13;100.00;97394.47;5088627;28;20410;-69
2022/01/16 02:54:39;;;;;;;26.75;18.58;;;;;;;-0.05;100.00;97399.69;5085729;28;20451;-68
2022/01/16 02:57:08;;;;;;;28.33;18.58;;;;;;;0.20;100.00;97380.94;5092570;28;20481;-68
2022/01/16 02:59:34;;;;;;;29.60;18.05;;;;;;;0.28;100.00;97381.00;5075058;28;20923;-68
2022/01/16 03:02:03;;;;;;;29.08;18.77;;;;;;;0.05;100.00;97379.84;5091111;28;20917;-68
2022/01/16 03:04:29;;;;;;;31.38;18.83;;;;;;;0.09;100.00;97385.50;5093247;28;20412;-68
2022/01/16 03:06:55;;;;;;;30.65;18.85;;;;;;;0.02;100.00;97381.88;5085075;28;20419;-69
2022/01/16 03:09:22;;;;;;;33.00;20.23;;;;;;;0.27;100.00;97387.13;5073609;28;20494;-68
2022/01/16 03:11:49;;;;;;;30.40;19.13;;;;;;;0.13;100.00;97384.25;5072423;28;20791;-69
2022/01/16 03:14:18;;;;;;;31.88;19.70;;;;;;;0.21;100.00;97377.41;5074392;28;20388;-68
2022/01/16 03:16:48;;;;;;;28.35;18.67;;;;;;;-0.07;100.00;97375.84;5086712;28;20388;-68
2022/01/16 03:22:05;;;;;;;33.83;19.75;;;;;;;0.17;100.00;97375.28;5092511;28;20421;-69
2022/01/16 03:24:38;;;;;;;39.97;19.13;;;;;;;0.41;100.00;97370.31;5056140;28;20787;-68
2022/01/16 03:27:05;;;;;;;32.88;18.65;;;;;;;0.23;100.00;97365.16;5089209;28;20419;-68
2022/01/16 03:29:31;;;;;;;36.17;19.05;;;;;;;-0.01;100.00;97359.81;5070545;28;20927;-68
2022/01/16 03:31:58;;;;;;;37.57;19.93;;;;;;;0.27;100.00;97361.38;5073830;28;20522;-68
2022/01/16 03:34:24;;;;;;;36.60;19.05;;;;;;;-0.06;100.00;97357.66;5054584;28;20945;-68
2022/01/16 03:36:50;;;;;;;34.35;18.83;;;;;;;-0.02;100.00;97356.41;5072322;28;20486;-68
2022/01/16 03:39:15;;;;;;;28.00;18.27;;;;;;;-0.29;100.00;97369.34;5055488;28;20419;-68
2022/01/16 03:41:41;;;;;;;35.87;18.97;;;;;;;-0.26;100.00;97369.03;5092715;28;20417;-68
2022/01/16 03:44:07;;;;;;;33.92;19.08;;;;;;;-0.12;100.00;97371.13;5075273;28;20399;-68
2022/01/16 03:46:36;;;;;;;31.02;18.23;;;;;;;-0.34;100.00;97378.44;5077787;28;20383;-68
2022/01/16 03:49:32;;;;;;;34.28;19.17;;;;;;;-0.12;100.00;97365.97;5083772;28;20948;-69
2022/01/16 03:51:59;;;;;;;30.75;18.23;;;;;;;-0.10;100.00;97363.25;5085674;28;20409;-68
2022/01/16 03:54:30;;;;;;;37.38;18.75;;;;;;;-0.01;100.00;97367.53;5092174;28;20427;-68
2022/01/16 03:56:57;;;;;;;30.27;18.60;;;;;;;-0.36;100.00;97370.88;5073652;28;20390;-68
2022/01/16 03:59:22;;;;;;;34.42;18.95;;;;;;;-0.41;100.00;97370.50;5092115;28;20433;-68
2022/01/16 04:01:48;;;;;;;28.63;18.23;;;;;;;-0.26;100.00;97371.63;5091777;28;20463;-68
2022/01/16 04:04:14;;;;;;;28.83;18.07;;;;;;;0.07;99.96;97379.66;5091091;28;20470;-68
2022/01/16 04:06:39;;;;;;;32.33;17.13;;;;;;;-0.43;100.00;97391.22;5091692;28;20484;-68
2022/01/16 04:09:05;;;;;;;36.27;18.00;;;;;;;-0.28;100.00;97383.81;5091240;28;20414;-68
2022/01/16 04:11:31;;;;;;;29.25;17.75;;;;;;;-0.55;100.00;97388.97;5091422;28;20402;-68
2022/01/16 04:14:06;;;;;;;26.60;17.13;;;;;;;-0.48;100.00;97382.31;5091960;28;20478;-69
2022/01/16 04:16:33;;;;;;;22.80;15.95;;;;;;;-0.58;100.00;97394.41;5091710;28;20741;-68
2022/01/16 04:18:58;;;;;;;24.20;16.83;;;;;;;-0.64;100.00;97387.25;5091545;28;20404;-68
2022/01/16 04:21:26;;;;;;;26.03;16.50;;;;;;;-0.82;100.00;97391.50;5091873;28;20751;-68
2022/01/16 04:23:53;;;;;;;27.00;16.45;;;;;;;-0.80;100.00;97390.44;5091938;28;20416;-68
2022/01/16 04:26:19;;;;;;;24.15;15.55;;;;;;;-0.74;100.00;97392.44;5091564;28;20393;-68
2022/01/16 04:28:48;;;;;;;28.05;16.02;;;;;;;-0.71;100.00;97379.28;5091686;28;20785;-68
2022/01/16 04:31:15;;;;;;;23.83;15.40;;;;;;;-0.25;98.17;97377.56;5091364;28;20927;-68
2022/01/16 04:33:42;;;;;;;28.63;16.00;;;;;;;-0.38;98.19;97371.94;5092020;28;20859;-68
2022/01/16 04:36:08;;;;;;;25.70;16.13;;;;;;;-0.39;98.20;97365.97;5091433;28;20393;-68
2022/01/16 04:38:36;;;;;;;28.73;15.63;;;;;;;-0.31;97.00;97367.84;5090904;28;20443;-68
2022/01/16 04:43:48;;;;;;;29.17;15.27;;;;;;;-0.66;98.82;97359.06;5090617;28;20412;-68
2022/01/16 04:46:22;;;;;;;27.98;15.65;;;;;;;-0.47;97.29;97368.47;5091219;28;20476;-68
2022/01/16 04:48:49;;;;;;;32.28;16.38;;;;;;;-0.91;98.98;97363.13;5091339;28;20875;-68
2022/01/16 04:51:15;;;;;;;32.63;16.38;;;;;;;-0.85;99.67;97362.56;5073041;28;20900;-68
2022/01/16 04:53:41;;;;;;;24.70;15.23;;;;;;;-1.01;100.00;97364.09;5090798;28;20394;-68
2022/01/16 04:56:07;;;;;;;29.17;16.35;;;;;;;-0.66;98.74;97371.13;5091395;28;20482;-68
2022/01/16 04:58:33;;;;;;;29.70;16.93;;;;;;;-0.75;98.37;97362.50;5091050;28;20525;-68
2022/01/16 05:00:58;;;;;;;26.58;16.10;;;;;;;-1.05;100.00;97365.31;5091117;28;20398;-68
2022/01/16 05:03:25;;;;;;;31.15;16.48;;;;;;;-1.12;100.00;97372.81;5090974;28;20409;-68
2022/01/16 05:05:51;;;;;;;42.17;15.82;;;;;;;-1.17;100.00;97379.31;5072955;28;20489;-68
2022/01/16 05:08:17;;;;;;;35.30;16.52;;;;;;;-1.14;100.00;97374.69;5091262;28;20485;-68
2022/01/16 05:10:42;;;;;;;26.77;16.35;;;;;;;-0.90;100.00;97377.63;5090855;28;20814;-68
2022/01/16 05:18:42;;;;;;;23.98;15.60;;;;;;;-1.12;100.00;97372.81;5091430;28;20428;-68
2022/01/16 05:21:08;;;;;;;24.50;16.27;;;;;;;-1.00;100.00;97383.72;5073078;28;20401;-68
2022/01/16 05:23:34;;;;;;;26.45;15.75;;;;;;;-1.03;99.51;97377.09;5090975;28;20406;-68
2022/01/16 05:26:00;;;;;;;28.98;15.90;;;;;;;-0.80;98.01;97374.19;5090947;28;20413;-69
2022/01/16 05:28:27;;;;;;;27.77;15.80;;;;;;;-1.51;100.00;97373.81;5090685;28;20460;-68
2022/01/16 05:30:52;;;;;;;26.63;15.68;;;;;;;-1.37;100.00;97371.63;5090946;28;20390;-68
2022/01/16 05:33:18;;;;;;;27.70;16.53;;;;;;;-1.21;100.00;97363.31;5091149;28;20390;-66
2022/01/16 05:35:43;;;;;;;24.00;15.90;;;;;;;-1.54;100.00;97362.03;5090586;28;20389;-66
2022/01/16 05:38:09;;;;;;;23.20;15.80;;;;;;;-1.45;100.00;97370.69;5090866;28;20414;-68
2022/01/16 05:40:35;;;;;;;23.98;16.60;;;;;;;-1.33;100.00;97377.28;5091806;28;20492;-69
2022/01/16 05:43:01;;;;;;;24.55;16.75;;;;;;;-1.38;100.00;97382.03;5094658;28;20448;-66
2022/01/16 05:45:28;;;;;;;27.37;17.00;;;;;;;-1.29;100.00;97376.91;5094993;28;20422;-66
2022/01/16 05:47:54;;;;;;;23.40;15.73;;;;;;;-1.41;100.00;97388.28;5093862;28;20406;-67
2022/01/16 05:50:19;;;;;;;21.48;14.82;;;;;;;-1.61;100.00;97385.84;5094103;28;20390;-66
2022/01/16 05:52:45;;;;;;;20.97;15.03;;;;;;;-1.60;100.00;97384.91;5094303;28;20503;-66
2022/01/16 05:55:11;;;;;;;19.57;14.10;;;;;;;-1.67;100.00;97388.00;5094040;28;20389;-66
2022/01/16 05:57:36;;;;;;;18.63;14.30;;;;;;;-1.62;100.00;97390.19;5076389;28;20751;-66
2022/01/16 06:00:04;;;;;;;20.17;15.40;;;;;;;-1.60;100.00;97395.16;5094169;28;20385;-66
2022/01/16 06:02:30;;;;;;;20.77;15.00;;;;;;;-1.57;100.00;97398.31;5075474;28;20906;-66
2022/01/16 06:04:56;;;;;;;21.03;15.67;;;;;;;-1.52;100.00;97395.31;5094222;28;20396;-66
2022/01/16 06:07:21;;;;;;;20.55;15.18;;;;;;;-1.57;100.00;97394.91;5075492;28;20746;-66
2022/01/16 06:09:46;;;;;;;20.93;15.47;;;;;;;-1.77;100.00;97400.03;5092931;28;20390;-67
2022/01/16 06:12:12;;;;;;;21.23;15.40;;;;;;;-1.47;100.00;97391.38;5093997;28;20386;-67
2022/01/16 06:14:37;;;;;;;21.40;14.98;;;;;;;-1.42;98.85;97402.06;5093539;28;20405;-67
2022/01/16 06:17:03;;;;;;;21.17;15.30;;;;;;;-1.75;99.95;97405.06;5093656;28;20394;-67
2022/01/16 06:19:29;;;;;;;22.70;15.57;;;;;;;-1.87;100.00;97412.06;5094194;28;20394;-67
2022/01/16 06:21:54;;;;;;;23.77;16.08;;;;;;;-2.00;100.00;97414.06;5093565;28;20425;-66
2022/01/16 06:24:20;;;;;;;20.17;15.05;;;;;;;-1.91;100.00;97420.19;5093235;28;20476;-67
2022/01/16 06:26:46;;;;;;;21.88;15.00;;;;;;;-1.77;100.00;97419.78;5093873;28;20482;-67
2022/01/16 06:29:11;;;;;;;25.27;16.13;;;;;;;-1.35;99.08;97428.03;5093989;28;20393;-67
2022/01/16 06:31:38;;;;;;;24.60;15.97;;;;;;;-1.53;100.00;97427.09;5093803;28;20902;-67
2022/01/16 06:34:05;;;;;;;23.15;15.80;;;;;;;-1.56;99.29;97427.38;5093670;28;20476;-67
2022/01/16 06:36:31;;;;;;;21.70;15.35;;;;;;;-1.56;99.50;97435.88;5075660;28;20390;-67
2022/01/16 06:38:57;;;;;;;22.73;14.80;;;;;;;-1.62;98.30;97427.91;5093927;28;20406;-67
2022/01/16 06:41:23;;;;;;;20.17;14.88;;;;;;;-1.94;99.47;97433.28;5080634;28;20865;-67
2022/01/16 06:43:48;;;;;;;19.15;14.88;;;;;;;-2.02;99.94;97441.66;5055493;28;20858;-67
2022/01/16 06:46:14;;;;;;;18.80;14.13;;;;;;;-2.15;100.00;97439.31;5092193;28;20398;-67
2022/01/16 06:48:40;;;;;;;21.27;14.38;;;;;;;-1.94;99.82;97444.34;5074837;28;20384;-67
2022/01/16 06:51:07;;;;;;;20.90;14.80;;;;;;;-1.87;100.00;97440.31;5065511;28;20552;-67
2022/01/16 06:53:32;;;;;;;19.38;15.02;;;;;;;-1.81;99.32;97442.38;5077843;28;20442;-67
2022/01/16 06:55:58;;;;;;;18.20;14.38;;;;;;;-2.06;99.53;97447.97;5085158;28;20460;-67
2022/01/16 06:58:23;;;;;;;20.48;15.43;;;;;;;-2.10;99.54;97442.31;5055430;28;20516;-68
2022/01/16 07:00:49;;;;;;;19.20;14.53;;;;;;;-1.89;99.56;97446.53;5083942;28;20469;-67
2022/01/16 07:03:14;;;;;;;21.47;15.53;;;;;;;-1.58;97.09;97444.69;5093250;28;20488;-67
2022/01/16 07:05:41;;;;;;;26.38;15.75;;;;;;;-1.62;96.59;97446.72;5092538;28;20394;-67
2022/01/16 07:08:07;;;;;;;22.83;15.75;;;;;;;-1.78;97.29;97446.41;5092195;28;20393;-67
2022/01/16 07:10:32;;;;;;;28.38;15.90;;;;;;;-1.99;99.05;97448.28;5092008;28;20417;-67
2022/01/16 07:12:58;;;;;;;22.40;15.40;;;;;;;-1.98;98.31;97455.84;5074940;28;20487;-67
2022/01/16 07:15:23;;;;;;;23.57;14.93;;;;;;;-1.88;98.95;97455.88;5092842;28;20389;-68
2022/01/16 07:17:49;;;;;;;28.20;14.30;;;;;;;-1.94;98.62;97469.22;5092863;28;20462;-68
2022/01/16 07:20:15;;;;;;;21.20;14.33;;;;;;;-2.08;99.78;97462.72;5092801;28;20417;-68
2022/01/16 07:22:41;;;;;;;25.73;15.40;;;;;;;-1.87;99.35;97453.16;5092693;28;20469;-68
2022/01/16 07:25:07;;;;;;;23.13;14.90;;;;;;;-2.13;98.36;97475.16;5093073;28;20482;-67
2022/01/16 07:27:33;;;;;;;23.45;14.85;;;;;;;-2.22;99.81;97486.19;5092059;28;20897;-67
2022/01/16 07:29:58;;;;;;;19.10;14.47;;;;;;;-2.18;99.43;97490.13;5092450;28;20398;-68
2022/01/16 07:32:24;;;;;;;22.93;15.07;;;;;;;-1.60;99.03;97490.25;5092725;28;20390;-69
2022/01/16 07:34:49;;;;;;;21.67;15.33;;;;;;;-1.95;97.89;97496.66;5092561;28;20393;-68
2022/01/16 07:37:15;;;;;;;20.83;14.50;;;;;;;-2.18;99.73;97496.09;5092305;28;20382;-68
2022/01/16 07:39:40;;;;;;;27.37;15.13;;;;;;;-1.84;98.69;97491.41;5091672;28;20969;-69
2022/01/16 07:42:06;;;;;;;24.23;17.45;;;;;;;-1.60;97.05;97492.81;5092270;28;20386;-69
2022/01/16 07:44:32;;;;;;;23.10;16.05;;;;;;;-1.57;96.21;97508.00;5092378;28;20410;-69
2022/01/16 07:46:57;;;;;;;20.15;15.07;;;;;;;-1.65;95.60;97497.56;5091873;28;20392;-69
2022/01/16 07:49:22;;;;;;;19.73;15.67;;;;;;;-1.59;95.42;97505.53;5091860;28;20855;-68
2022/01/16 07:51:48;;;;;;;21.20;15.53;;;;;;;-1.67;95.35;97497.69;5090157;28;20402;-68
2022/01/16 07:54:13;;;;;;;19.52;14.65;;;;;;;-1.34;94.72;97510.16;5071781;28;20391;-68
2022/01/16 07:56:39;;;;;;;20.05;15.30;;;;;;;-1.28;94.31;97513.94;5049072;28;20402;-68
2022/01/16 07:59:05;;;;;;;20.50;15.43;;;;;;;-1.97;96.22;97511.41;5076414;28;20931;-70
2022/01/16 08:01:31;;;;;;;20.70;15.55;;;;;;;-2.36;100.00;97509.63;5083091;28;20402;-72
2022/01/16 08:03:56;;;;;;;19.55;15.02;;;;;;;-2.35;100.00;97513.84;5073240;28;20437;-71
2022/01/16 08:06:22;;;;;;;20.07;14.93;;;;;;;-1.53;98.04;97517.06;5091295;28;20393;-68
2022/01/16 08:08:47;;;;;;;19.33;15.47;;;;;;;-1.22;95.56;97525.47;5091141;28;20428;-68
2022/01/16 08:11:13;;;;;;;21.73;16.13;;;;;;;-0.92;94.76;97528.72;5081271;28;20388;-68
2022/01/16 08:13:38;;;;;;;20.83;15.17;;;;;;;-0.87;92.55;97536.84;5082695;28;20480;-70
2022/01/16 08:16:05;;;;;;;18.50;14.47;;;;;;;-1.03;91.98;97538.34;5091785;28;20897;-70
2022/01/16 08:18:31;;;;;;;18.20;14.32;;;;;;;-1.15;92.51;97544.56;5091576;28;20382;-69
2022/01/16 08:20:57;;;;;;;19.42;14.60;;;;;;;-1.32;93.72;97540.88;5091106;28;20385;-70
2022/01/16 08:23:22;;;;;;;22.07;17.53;;;;;;;-0.94;92.94;97543.47;5090799;28;20409;-71
2022/01/16 08:25:47;;;;;;;19.63;15.20;;;;;;;-0.62;91.69;97543.19;5091366;28;20408;-69
2022/01/16 08:28:13;;;;;;;19.85;15.27;;;;;;;-0.95;92.59;97554.69;5091165;28;20515;-69
2022/01/16 08:30:39;;;;;;;21.02;15.23;;;;;;;-0.85;92.49;97555.53;5090734;28;20386;-67
2022/01/16 08:33:04;;;;;;;21.40;16.13;;;;;;;-1.10;94.60;97553.50;5090406;28;20390;-67
2022/01/16 08:35:29;;;;;;;23.67;16.57;;;;;;;-0.96;94.04;97553.09;5091553;28;20394;-68
2022/01/16 08:37:55;;;;;;;26.10;17.17;;;;;;;-1.00;94.91;97545.75;5072643;28;20398;-68
2022/01/16 08:40:20;;;;;;;23.20;16.95;;;;;;;-1.27;95.55;97546.44;5091015;28;20382;-69
2022/01/16 08:42:46;;;;;;;23.77;16.97;;;;;;;-1.06;95.57;97551.47;5090875;28;20432;-67
2022/01/16 08:45:11;;;;;;;23.73;16.87;;;;;;;-0.66;94.38;97551.28;5091224;28;20474;-67
2022/01/16 08:47:37;;;;;;;22.53;16.73;;;;;;;-0.66;94.40;97553.88;5091123;28;20436;-65
2022/01/16 08:50:05;;;;;;;24.90;17.63;;;;;;;-0.56;93.69;97563.19;5091266;28;20425;-67
2022/01/16 08:52:30;;;;;;;21.45;16.63;;;;;;;-0.60;94.55;97561.03;5090934;28;20393;-68
2022/01/16 08:54:56;;;;;;;22.93;16.87;;;;;;;-0.27;92.91;97567.47;5091528;28;20383;-67
2022/01/16 08:57:21;;;;;;;33.50;17.42;;;;;;;-0.76;93.48;97578.81;5091197;28;20469;-67
2022/01/16 08:59:48;;;;;;;26.07;17.90;;;;;;;-1.12;95.27;97588.84;5091247;28;20394;-67
2022/01/16 09:02:13;;;;;;;24.53;16.87;;;;;;;-0.73;96.81;97592.22;5091240;28;20458;-67
2022/01/16 09:04:39;;;;;;;23.13;16.90;;;;;;;-0.24;95.00;97598.94;5090815;28;20418;-69
2022/01/16 09:07:04;;;;;;;21.97;16.37;;;;;;;0.35;92.10;97595.19;5090966;28;20389;-68
2022/01/16 09:09:31;;;;;;;21.35;15.70;;;;;;;0.49;90.07;97593.94;5090095;28;20417;-68
2022/01/16 09:11:56;;;;;;;21.50;15.40;;;;;;;1.00;88.54;97591.59;5082853;28;20466;-69
2022/01/16 09:14:22;;;;;;;21.93;13.37;;;;;;;1.05;87.70;97589.38;5084888;28;20809;-69
2022/01/16 09:16:47;;;;;;;20.13;13.30;;;;;;;0.92;87.48;97590.69;5094685;28;20192;-70
2022/01/16 09:19:13;;;;;;;24.10;13.57;;;;;;;0.72;88.54;97598.56;5095448;28;20560;-69
2022/01/16 09:21:38;;;;;;;22.07;13.10;;;;;;;0.74;88.93;97603.56;5096321;28;20188;-70
2022/01/16 09:24:04;;;;;;;21.43;12.17;;;;;;;0.71;90.54;97606.44;5095453;28;20189;-70
2022/01/16 09:26:29;;;;;;;19.70;13.00;;;;;;;0.82;88.21;97611.38;5095765;28;20267;-70
2022/01/16 09:28:55;;;;;;;19.07;12.80;;;;;;;0.67;88.91;97618.00;5095535;28;20521;-69
2022/01/16 09:31:20;;;;;;;21.33;13.67;;;;;;;0.79;90.25;97614.25;5095173;28;20281;-70
2022/01/16 09:33:46;;;;;;;23.70;14.20;;;;;;;0.41;91.29;97616.06;5096130;28;20188;-70
2022/01/16 09:36:11;;;;;;;22.77;14.17;;;;;;;0.75;90.97;97613.72;5095698;28;20185;-69
2022/01/16 09:38:37;;;;;;;22.37;13.33;;;;;;;0.77;90.73;97623.91;5095288;28;20220;-70
2022/01/16 09:41:04;;;;;;;23.47;15.00;;;;;;;0.11;93.24;97643.88;5095373;28;20189;-70
2022/01/16 09:43:34;;;;;;;23.37;14.03;;;;;;;0.32;92.96;97631.59;5095961;28;20204;-70
2022/01/16 09:46:00;;;;;;;20.70;13.43;;;;;;;0.54;92.09;97630.41;5095664;28;20177;-70
2022/01/16 09:48:26;;;;;;;24.03;14.60;;;;;;;0.03;93.89;97639.41;5092520;28;20189;-70
2022/01/16 09:50:51;;;;;;;20.83;13.40;;;;;;;0.22;94.32;97641.13;5060754;28;20188;-70
2022/01/16 09:53:17;;;;;;;24.20;14.63;;;;;;;0.44;94.78;97645.13;5095926;28;20177;-70
2022/01/16 09:55:43;;;;;;;20.13;14.00;;;;;;;0.32;92.58;97647.06;5095543;28;20195;-70
2022/01/16 09:58:08;;;;;;;20.63;13.30;;;;;;;0.61;92.23;97642.59;5077471;28;20181;-70
2022/01/16 10:00:34;;;;;;;20.93;13.67;;;;;;;1.01;90.27;97638.81;5095557;28;20184;-70
2022/01/16 10:03:00;;;;;;;20.40;13.43;;;;;;;0.92;90.09;97645.69;5094920;28;20200;-70
2022/01/16 10:05:30;;;;;;;20.73;13.63;;;;;;;0.82;90.49;97648.31;5095197;28;20196;-70
2022/01/16 10:07:58;;;;;;;19.03;12.87;;;;;;;0.72;91.16;97642.41;5077287;28;20181;-70
2022/01/16 10:10:27;;;;;;;19.07;13.37;;;;;;;1.28;89.81;97650.91;5076170;28;20249;-70
2022/01/16 10:12:54;;;;;;;21.63;12.33;;;;;;;1.64;87.97;97650.72;5095409;28;20289;-69
2022/01/16 10:15:20;;;;;;;21.70;12.97;;;;;;;1.89;86.70;97650.91;5094502;28;20191;-70
2022/01/16 10:17:48;;;;;;;18.80;13.13;;;;;;;2.15;85.33;97653.50;5094797;28;20193;-68
2022/01/16 10:20:17;;;;;;;22.23;14.23;;;;;;;1.92;87.65;97653.19;5076769;28;20652;-68
2022/01/16 10:22:48;;;;;;;19.63;13.07;;;;;;;1.41;87.37;97648.72;5076217;28;20184;-68
2022/01/16 10:25:16;;;;;;;22.47;14.17;;;;;;;1.99;87.42;97649.88;5094725;28;20177;-69
2022/01/16 10:27:44;;;;;;;22.30;12.80;;;;;;;2.00;85.22;97645.50;5094797;28;20197;-67
2022/01/16 10:30:14;;;;;;;21.60;14.87;;;;;;;2.29;84.69;97633.06;5095082;28;20181;-68
2022/01/16 10:32:42;;;;;;;39.17;29.23;;;;;;;2.34;85.66;97625.63;5094992;28;20196;-69
2022/01/16 10:35:24;;;;;;;30.97;22.27;;;;;;;2.87;85.81;97622.78;5094794;28;20197;-69
2022/01/16 10:37:54;;;;;;;41.23;28.77;;;;;;;3.54;83.63;97633.91;5094145;28;20181;-67
2022/01/16 10:40:31;;;;;;;26.27;14.83;;;;;;;3.25;83.63;97636.97;5095158;28;20200;-70
2022/01/16 10:42:58;;;;;;;21.77;13.73;;;;;;;2.79;83.73;97642.66;5094597;28;20668;-68
2022/01/16 10:45:28;;;;;;;27.50;16.20;;;;;;;2.57;84.90;97635.44;5094394;28;20185;-69
2022/01/16 10:47:57;;;;;;;31.73;18.17;;;;;;;2.57;84.56;97627.69;5094080;28;20187;-69
2022/01/16 10:50:31;;;;;;;20.10;13.80;;;;;;;2.15;84.75;97641.41;5094480;28;20181;-69
2022/01/16 10:53:01;;;;;;;21.97;13.87;;;;;;;2.38;84.26;97645.09;5093018;28;20177;-68
2022/01/16 10:55:46;;;;;;;19.50;12.10;;;;;;;2.06;82.27;97655.25;5078390;28;20215;-69
2022/01/16 10:58:16;;;;;;;17.13;12.27;;;;;;;2.53;85.00;97663.41;5094255;28;20278;-70
2022/01/16 11:00:45;;;;;;;20.83;13.47;;;;;;;3.08;84.16;97673.34;5094236;28;20448;-70
2022/01/16 11:03:12;;;;;;;19.23;12.80;;;;;;;3.01;82.11;97672.38;5093704;28;20296;-70
2022/01/16 11:05:43;;;;;;;20.60;13.00;;;;;;;3.07;81.66;97664.75;5093444;28;20268;-70
2022/01/16 11:08:14;;;;;;;19.07;12.63;;;;;;;2.89;81.19;97666.66;5075867;28;20578;-70
2022/01/16 11:11:01;;;;;;;16.77;12.20;;;;;;;3.23;81.73;97669.97;5093338;28;20195;-69
2022/01/16 11:13:33;;;;;;;18.50;13.07;;;;;;;3.05;84.07;97677.06;5088558;28;20204;-69
2022/01/16 11:16:07;;;;;;;19.27;13.03;;;;;;;3.12;83.81;97659.13;5075164;28;20189;-70
2022/01/16 11:18:40;;;;;;;19.53;13.70;;;;;;;3.40;80.94;97672.63;5072160;28;20177;-69
2022/01/16 11:21:20;;;;;;;20.23;13.97;;;;;;;3.46;80.96;97671.94;5074290;28;20184;-69
2022/01/16 11:26:12;;;;;;;20.90;13.97;;;;;;;2.71;84.87;97671.09;5084106;28;20185;-69
2022/01/16 11:28:38;;;;;;;21.70;13.57;;;;;;;2.62;83.91;97678.00;5073871;28;20189;-69
2022/01/16 11:31:09;;;;;;;22.97;13.30;;;;;;;2.26;85.07;97674.75;5056883;28;20226;-69
2022/01/16 11:33:37;;;;;;;21.37;14.23;;;;;;;2.18;86.19;97679.03;5090293;28;20265;-69
2022/01/16 11:36:11;;;;;;;23.03;14.57;;;;;;;2.39;86.66;97671.75;5084486;28;20522;-69
2022/01/16 11:38:41;;;;;;;21.33;13.47;;;;;;;2.37;85.90;97681.44;5091153;28;20220;-69
2022/01/16 11:41:16;;;;;;;20.50;14.40;;;;;;;2.70;84.93;97679.84;5092028;28;20188;-69
2022/01/16 11:43:48;;;;;;;22.83;14.40;;;;;;;2.47;85.01;97689.91;5092466;28;20196;-69
2022/01/16 11:46:25;;;;;;;22.57;13.77;;;;;;;2.29;84.26;97689.13;5092799;28;20188;-69
2022/01/16 11:48:53;;;;;;;22.30;14.13;;;;;;;2.15;85.37;97687.13;5092832;28;20454;-69
2022/01/16 11:51:38;;;;;;;19.27;13.80;;;;;;;2.38;85.29;97693.41;5092582;28;20177;-68
2022/01/16 11:54:25;;;;;;;23.80;13.87;;;;;;;2.16;85.65;97692.16;5076138;28;20874;-71
2022/01/16 11:56:54;;;;;;;22.07;14.07;;;;;;;1.70;87.74;97690.66;5086760;28;20207;-69
2022/01/16 11:59:23;;;;;;;23.73;15.30;;;;;;;1.63;88.83;97694.78;5069534;28;20184;-69
2022/01/16 12:01:52;;;;;;;23.93;15.00;;;;;;;1.71;88.69;97689.69;5072869;28;20484;-69
2022/01/16 12:04:29;;;;;;;23.10;15.47;;;;;;;1.94;88.87;97684.88;5071686;28;20300;-69